Terminal Aerodrome Forecast
Issued by NWS Bismarck, ND

Home | Current Version | Previous Version | Graphics & Text | Print | Product List | Glossary Off
Versions: 1 2 3 4 5 6 7 8 9 10 11 12 13 14 15 16 17 18 19 20

134
FTUS43 KBIS 172338
TAFBIS
TAF
KBIS 172338Z 1800/1824 06004KT P6SM SCT150 BKN200
     FM180500 01005KT P6SM SCT090 BKN110
     FM180800 32009KT P6SM BKN090
     FM181000 32009KT P6SM SCT020 BKN035
     FM181300 32013G18KT P6SM BKN045
     FM181700 31013G19KT P6SM FEW250=

USA.gov is the U.S. government's official web portal to all federal, state and local government web resources and services.